sensor_id;sensor_type;location;lat;lon;timestamp;temperature;humidity
2657;DHT22;1338;48.176;11.792;2023-01-24T00:01:15;1.00;99.90
2657;DHT22;1338;48.176;11.792;2023-01-24T00:03:45;1.10;99.90
2657;DHT22;1338;48.176;11.792;2023-01-24T00:06:14;0.80;99.90
2657;DHT22;1338;48.176;11.792;2023-01-24T00:08:42;1.30;99.90
2657;DHT22;1338;48.176;11.792;2023-01-24T00:11:12;1.20;99.90
2657;DHT22;1338;48.176;11.792;2023-01-24T00:13:40;0.80;99.90
2657;DHT22;1338;48.176;11.792;2023-01-24T00:16:11;1.10;99.90
2657;DHT22;1338;48.176;11.792;2023-01-24T00:18:40;1.00;99.90
2657;DHT22;1338;48.176;11.792;2023-01-24T00:21:11;1.10;99.90
2657;DHT22;1338;48.176;11.792;2023-01-24T00:23:41;1.10;99.90
2657;DHT22;1338;48.176;11.792;2023-01-24T00:26:09;1.00;99.90
2657;DHT22;1338;48.176;11.792;2023-01-24T00:28:38;1.20;99.90
2657;DHT22;1338;48.176;11.792;2023-01-24T00:31:07;1.10;99.90
2657;DHT22;1338;48.176;11.792;2023-01-24T00:33:35;1.20;99.90
2657;DHT22;1338;48.176;11.792;2023-01-24T00:36:04;1.10;99.90
2657;DHT22;1338;48.176;11.792;2023-01-24T00:38:34;1.20;99.90
2657;DHT22;1338;48.176;11.792;2023-01-24T00:41:02;1.20;99.90
2657;DHT22;1338;48.176;11.792;2023-01-24T00:43:30;1.40;99.90
2657;DHT22;1338;48.176;11.792;2023-01-24T00:45:59;1.40;99.90
2657;DHT22;1338;48.176;11.792;2023-01-24T00:48:27;1.30;99.90
2657;DHT22;1338;48.176;11.792;2023-01-24T00:50:55;0.90;99.90
2657;DHT22;1338;48.176;11.792;2023-01-24T00:53:23;0.90;99.90
2657;DHT22;1338;48.176;11.792;2023-01-24T00:55:54;1.20;99.90
2657;DHT22;1338;48.176;11.792;2023-01-24T00:58:23;1.10;99.90
2657;DHT22;1338;48.176;11.792;2023-01-24T01:00:54;1.10;99.90
2657;DHT22;1338;48.176;11.792;2023-01-24T01:03:23;1.20;99.90
2657;DHT22;1338;48.176;11.792;2023-01-24T01:05:57;1.30;99.90
2657;DHT22;1338;48.176;11.792;2023-01-24T01:08:25;1.00;99.90
2657;DHT22;1338;48.176;11.792;2023-01-24T01:10:55;1.30;99.90
2657;DHT22;1338;48.176;11.792;2023-01-24T01:13:23;1.00;99.90
2657;DHT22;1338;48.176;11.792;2023-01-24T01:15:51;0.90;99.90
2657;DHT22;1338;48.176;11.792;2023-01-24T01:18:20;1.00;99.90
2657;DHT22;1338;48.176;11.792;2023-01-24T01:20:51;1.10;99.90
2657;DHT22;1338;48.176;11.792;2023-01-24T01:23:19;1.30;99.90
2657;DHT22;1338;48.176;11.792;2023-01-24T01:25:47;1.00;99.90
2657;DHT22;1338;48.176;11.792;2023-01-24T01:28:16;1.30;99.90
2657;DHT22;1338;48.176;11.792;2023-01-24T01:30:51;1.10;99.90
2657;DHT22;1338;48.176;11.792;2023-01-24T01:33:21;0.90;99.90
2657;DHT22;1338;48.176;11.792;2023-01-24T01:35:50;0.80;99.90
2657;DHT22;1338;48.176;11.792;2023-01-24T01:38:19;0.90;99.90
2657;DHT22;1338;48.176;11.792;2023-01-24T01:40:47;0.90;99.90
2657;DHT22;1338;48.176;11.792;2023-01-24T01:43:18;0.70;99.90
2657;DHT22;1338;48.176;11.792;2023-01-24T01:45:48;0.80;99.90
2657;DHT22;1338;48.176;11.792;2023-01-24T01:48:30;0.80;1.00
2657;DHT22;1338;48.176;11.792;2023-01-24T01:51:06;1.10;1.00
2657;DHT22;1338;48.176;11.792;2023-01-24T01:53:43;1.00;99.90
2657;DHT22;1338;48.176;11.792;2023-01-24T01:56:21;0.80;99.90
2657;DHT22;1338;48.176;11.792;2023-01-24T01:58:52;0.90;1.00
2657;DHT22;1338;48.176;11.792;2023-01-24T02:01:23;0.80;1.00
2657;DHT22;1338;48.176;11.792;2023-01-24T02:03:56;0.80;1.00
2657;DHT22;1338;48.176;11.792;2023-01-24T02:06:43;0.80;1.00
2657;DHT22;1338;48.176;11.792;2023-01-24T02:09:16;1.10;1.00
2657;DHT22;1338;48.176;11.792;2023-01-24T02:11:46;1.00;99.90
2657;DHT22;1338;48.176;11.792;2023-01-24T02:14:18;1.20;99.90
2657;DHT22;1338;48.176;11.792;2023-01-24T02:17:05;1.10;99.90
2657;DHT22;1338;48.176;11.792;2023-01-24T02:19:45;1.10;99.90
2657;DHT22;1338;48.176;11.792;2023-01-24T02:22:18;1.10;99.90
2657;DHT22;1338;48.176;11.792;2023-01-24T02:24:55;1.00;99.90
2657;DHT22;1338;48.176;11.792;2023-01-24T02:27:26;1.20;99.90
2657;DHT22;1338;48.176;11.792;2023-01-24T02:29:56;1.20;99.90
2657;DHT22;1338;48.176;11.792;2023-01-24T02:32:25;1.30;99.90
2657;DHT22;1338;48.176;11.792;2023-01-24T02:34:53;1.20;99.90
2657;DHT22;1338;48.176;11.792;2023-01-24T02:37:24;1.10;99.90
2657;DHT22;1338;48.176;11.792;2023-01-24T02:39:56;1.00;99.90
2657;DHT22;1338;48.176;11.792;2023-01-24T02:42:32;1.10;99.90
2657;DHT22;1338;48.176;11.792;2023-01-24T02:45:07;1.00;99.90
2657;DHT22;1338;48.176;11.792;2023-01-24T02:47:40;1.10;99.90
2657;DHT22;1338;48.176;11.792;2023-01-24T02:50:10;1.00;99.90
2657;DHT22;1338;48.176;11.792;2023-01-24T02:52:38;1.20;1.00
2657;DHT22;1338;48.176;11.792;2023-01-24T02:55:24;1.30;99.90
2657;DHT22;1338;48.176;11.792;2023-01-24T02:57:56;1.20;99.90
2657;DHT22;1338;48.176;11.792;2023-01-24T03:00:37;1.20;99.90
2657;DHT22;1338;48.176;11.792;2023-01-24T03:03:10;1.10;99.90
2657;DHT22;1338;48.176;11.792;2023-01-24T03:05:38;1.00;99.90
2657;DHT22;1338;48.176;11.792;2023-01-24T03:08:32;1.10;99.90
2657;DHT22;1338;48.176;11.792;2023-01-24T03:11:02;0.90;99.90
2657;DHT22;1338;48.176;11.792;2023-01-24T03:13:33;0.90;99.90
2657;DHT22;1338;48.176;11.792;2023-01-24T03:16:22;1.30;1.00
2657;DHT22;1338;48.176;11.792;2023-01-24T03:19:08;1.10;99.90
2657;DHT22;1338;48.176;11.792;2023-01-24T03:21:53;1.00;99.90
2657;DHT22;1338;48.176;11.792;2023-01-24T03:24:39;0.80;99.90
2657;DHT22;1338;48.176;11.792;2023-01-24T03:27:25;0.80;1.00
2657;DHT22;1338;48.176;11.792;2023-01-24T03:30:16;1.00;1.00
2657;DHT22;1338;48.176;11.792;2023-01-24T03:33:03;1.20;1.00
2657;DHT22;1338;48.176;11.792;2023-01-24T03:35:49;1.10;99.90
2657;DHT22;1338;48.176;11.792;2023-01-24T03:38:29;1.10;1.00
2657;DHT22;1338;48.176;11.792;2023-01-24T03:41:15;1.30;99.90
2657;DHT22;1338;48.176;11.792;2023-01-24T03:43:43;0.90;99.90
2657;DHT22;1338;48.176;11.792;2023-01-24T03:46:14;1.10;1.00
2657;DHT22;1338;48.176;11.792;2023-01-24T03:48:47;1.20;99.90
2657;DHT22;1338;48.176;11.792;2023-01-24T03:51:17;1.20;99.90
2657;DHT22;1338;48.176;11.792;2023-01-24T03:54:03;1.20;99.90
2657;DHT22;1338;48.176;11.792;2023-01-24T03:56:48;1.00;99.90
2657;DHT22;1338;48.176;11.792;2023-01-24T03:59:18;1.00;1.00
2657;DHT22;1338;48.176;11.792;2023-01-24T04:01:48;1.10;1.00
2657;DHT22;1338;48.176;11.792;2023-01-24T04:04:20;1.20;1.00
2657;DHT22;1338;48.176;11.792;2023-01-24T04:06:49;1.30;99.90
2657;DHT22;1338;48.176;11.792;2023-01-24T04:09:19;1.10;99.90
2657;DHT22;1338;48.176;11.792;2023-01-24T04:11:47;1.10;99.90
2657;DHT22;1338;48.176;11.792;2023-01-24T04:14:21;1.30;99.90
2657;DHT22;1338;48.176;11.792;2023-01-24T04:17:05;0.90;99.90
2657;DHT22;1338;48.176;11.792;2023-01-24T04:19:40;1.10;99.90
2657;DHT22;1338;48.176;11.792;2023-01-24T04:22:08;1.40;1.00
2657;DHT22;1338;48.176;11.792;2023-01-24T04:24:38;1.20;99.90
2657;DHT22;1338;48.176;11.792;2023-01-24T04:27:07;1.00;99.90
2657;DHT22;1338;48.176;11.792;2023-01-24T04:29:54;1.00;1.00
2657;DHT22;1338;48.176;11.792;2023-01-24T04:32:24;1.10;99.90
2657;DHT22;1338;48.176;11.792;2023-01-24T04:35:04;1.10;99.90
2657;DHT22;1338;48.176;11.792;2023-01-24T04:37:47;1.30;99.90
2657;DHT22;1338;48.176;11.792;2023-01-24T04:40:23;1.20;99.90
2657;DHT22;1338;48.176;11.792;2023-01-24T04:42:55;1.10;99.90
2657;DHT22;1338;48.176;11.792;2023-01-24T04:45:23;1.30;99.90
2657;DHT22;1338;48.176;11.792;2023-01-24T04:47:55;1.20;99.90
2657;DHT22;1338;48.176;11.792;2023-01-24T04:50:23;1.10;99.90
2657;DHT22;1338;48.176;11.792;2023-01-24T04:52:52;1.20;99.90
2657;DHT22;1338;48.176;11.792;2023-01-24T04:55:21;1.00;99.90
2657;DHT22;1338;48.176;11.792;2023-01-24T04:57:51;1.20;99.90
2657;DHT22;1338;48.176;11.792;2023-01-24T05:00:19;1.10;99.90
2657;DHT22;1338;48.176;11.792;2023-01-24T05:02:50;1.30;99.90
2657;DHT22;1338;48.176;11.792;2023-01-24T05:05:21;1.50;99.90
2657;DHT22;1338;48.176;11.792;2023-01-24T05:07:50;1.00;99.90
2657;DHT22;1338;48.176;11.792;2023-01-24T05:10:19;1.10;99.90
2657;DHT22;1338;48.176;11.792;2023-01-24T05:12:51;1.00;99.90
2657;DHT22;1338;48.176;11.792;2023-01-24T05:15:22;1.00;1.00
2657;DHT22;1338;48.176;11.792;2023-01-24T05:17:51;1.00;1.00
2657;DHT22;1338;48.176;11.792;2023-01-24T05:20:24;1.30;1.00
2657;DHT22;1338;48.176;11.792;2023-01-24T05:22:55;1.40;99.90
2657;DHT22;1338;48.176;11.792;2023-01-24T05:25:25;1.20;99.90
2657;DHT22;1338;48.176;11.792;2023-01-24T05:27:54;1.10;99.90
2657;DHT22;1338;48.176;11.792;2023-01-24T05:30:22;1.40;1.00
2657;DHT22;1338;48.176;11.792;2023-01-24T05:32:55;1.30;99.90
2657;DHT22;1338;48.176;11.792;2023-01-24T05:35:25;1.20;99.90
2657;DHT22;1338;48.176;11.792;2023-01-24T05:37:54;1.10;99.90
2657;DHT22;1338;48.176;11.792;2023-01-24T05:40:24;1.30;1.00
2657;DHT22;1338;48.176;11.792;2023-01-24T05:42:52;1.00;99.90
2657;DHT22;1338;48.176;11.792;2023-01-24T05:45:20;1.10;1.00
2657;DHT22;1338;48.176;11.792;2023-01-24T05:47:49;1.10;1.00
2657;DHT22;1338;48.176;11.792;2023-01-24T05:50:18;0.90;1.00
2657;DHT22;1338;48.176;11.792;2023-01-24T05:53:08;1.00;1.00
2657;DHT22;1338;48.176;11.792;2023-01-24T05:55:36;1.20;1.00
2657;DHT22;1338;48.176;11.792;2023-01-24T05:58:04;1.40;1.00
2657;DHT22;1338;48.176;11.792;2023-01-24T06:00:51;1.30;1.00
2657;DHT22;1338;48.176;11.792;2023-01-24T06:03:50;0.80;1.00
2657;DHT22;1338;48.176;11.792;2023-01-24T06:06:21;1.10;1.00
2657;DHT22;1338;48.176;11.792;2023-01-24T06:08:51;1.00;1.00
2657;DHT22;1338;48.176;11.792;2023-01-24T06:11:22;1.00;1.00
2657;DHT22;1338;48.176;11.792;2023-01-24T06:14:03;1.00;1.00
2657;DHT22;1338;48.176;11.792;2023-01-24T06:16:31;1.10;1.00
2657;DHT22;1338;48.176;11.792;2023-01-24T06:19:01;0.90;1.00
2657;DHT22;1338;48.176;11.792;2023-01-24T06:21:42;1.20;1.00
2657;DHT22;1338;48.176;11.792;2023-01-24T06:24:17;1.20;1.00
2657;DHT22;1338;48.176;11.792;2023-01-24T06:27:13;1.10;1.00
2657;DHT22;1338;48.176;11.792;2023-01-24T06:29:41;1.10;1.00
2657;DHT22;1338;48.176;11.792;2023-01-24T06:32:20;1.00;1.00
2657;DHT22;1338;48.176;11.792;2023-01-24T06:35:05;0.80;1.00
2657;DHT22;1338;48.176;11.792;2023-01-24T06:37:37;1.10;1.00
2657;DHT22;1338;48.176;11.792;2023-01-24T06:40:12;1.20;1.00
2657;DHT22;1338;48.176;11.792;2023-01-24T06:42:41;1.30;1.00
2657;DHT22;1338;48.176;11.792;2023-01-24T06:45:10;1.10;1.00
2657;DHT22;1338;48.176;11.792;2023-01-24T06:47:38;1.30;1.00
2657;DHT22;1338;48.176;11.792;2023-01-24T06:52:40;2.30;69.60
2657;DHT22;1338;48.176;11.792;2023-01-24T06:55:10;3.30;55.10
2657;DHT22;1338;48.176;11.792;2023-01-24T06:57:38;1.90;99.90
2657;DHT22;1338;48.176;11.792;2023-01-24T07:00:07;1.50;99.90
2657;DHT22;1338;48.176;11.792;2023-01-24T07:02:36;1.40;99.90
2657;DHT22;1338;48.176;11.792;2023-01-24T07:05:05;1.10;99.90
2657;DHT22;1338;48.176;11.792;2023-01-24T07:07:33;1.10;1.00
2657;DHT22;1338;48.176;11.792;2023-01-24T07:10:01;1.10;1.00
2657;DHT22;1338;48.176;11.792;2023-01-24T07:12:31;1.00;1.00
2657;DHT22;1338;48.176;11.792;2023-01-24T07:14:59;1.00;1.00
2657;DHT22;1338;48.176;11.792;2023-01-24T07:17:27;1.10;1.00
2657;DHT22;1338;48.176;11.792;2023-01-24T07:19:56;1.10;1.00
2657;DHT22;1338;48.176;11.792;2023-01-24T07:22:25;1.20;1.00
2657;DHT22;1338;48.176;11.792;2023-01-24T07:24:53;1.30;1.00
2657;DHT22;1338;48.176;11.792;2023-01-24T07:27:22;1.20;1.00
2657;DHT22;1338;48.176;11.792;2023-01-24T07:29:51;1.40;99.90
2657;DHT22;1338;48.176;11.792;2023-01-24T07:32:19;1.20;99.90
2657;DHT22;1338;48.176;11.792;2023-01-24T07:34:48;1.40;99.90
2657;DHT22;1338;48.176;11.792;2023-01-24T07:37:16;1.40;99.90
2657;DHT22;1338;48.176;11.792;2023-01-24T07:39:48;1.30;99.90
2657;DHT22;1338;48.176;11.792;2023-01-24T07:42:16;1.10;99.90
2657;DHT22;1338;48.176;11.792;2023-01-24T07:44:44;1.10;99.90
2657;DHT22;1338;48.176;11.792;2023-01-24T07:47:14;1.30;1.00
2657;DHT22;1338;48.176;11.792;2023-01-24T07:49:42;1.30;1.00
2657;DHT22;1338;48.176;11.792;2023-01-24T07:52:10;1.30;99.90
2657;DHT22;1338;48.176;11.792;2023-01-24T07:54:38;1.50;1.00
2657;DHT22;1338;48.176;11.792;2023-01-24T07:57:06;1.40;99.90
2657;DHT22;1338;48.176;11.792;2023-01-24T07:59:35;1.30;99.90
2657;DHT22;1338;48.176;11.792;2023-01-24T08:02:05;1.30;99.90
2657;DHT22;1338;48.176;11.792;2023-01-24T08:04:35;1.60;99.90
2657;DHT22;1338;48.176;11.792;2023-01-24T08:07:03;1.50;99.90
2657;DHT22;1338;48.176;11.792;2023-01-24T08:09:49;1.60;99.90
2657;DHT22;1338;48.176;11.792;2023-01-24T08:12:20;1.50;99.90
2657;DHT22;1338;48.176;11.792;2023-01-24T08:14:48;1.60;99.90
2657;DHT22;1338;48.176;11.792;2023-01-24T08:17:16;1.30;99.90
2657;DHT22;1338;48.176;11.792;2023-01-24T08:19:46;1.50;99.90
2657;DHT22;1338;48.176;11.792;2023-01-24T08:22:23;1.40;99.90
2657;DHT22;1338;48.176;11.792;2023-01-24T08:24:51;1.30;99.90
2657;DHT22;1338;48.176;11.792;2023-01-24T08:27:19;1.40;99.90
2657;DHT22;1338;48.176;11.792;2023-01-24T08:29:47;1.60;99.90
2657;DHT22;1338;48.176;11.792;2023-01-24T08:32:15;1.60;99.90
2657;DHT22;1338;48.176;11.792;2023-01-24T08:34:45;1.60;99.90
2657;DHT22;1338;48.176;11.792;2023-01-24T08:37:13;1.60;99.90
2657;DHT22;1338;48.176;11.792;2023-01-24T08:39:41;1.60;99.90
2657;DHT22;1338;48.176;11.792;2023-01-24T08:42:10;1.60;99.90
2657;DHT22;1338;48.176;11.792;2023-01-24T08:44:38;1.50;99.90
2657;DHT22;1338;48.176;11.792;2023-01-24T08:47:06;1.60;99.90
2657;DHT22;1338;48.176;11.792;2023-01-24T08:49:35;1.50;99.90
2657;DHT22;1338;48.176;11.792;2023-01-24T08:52:04;1.70;99.90
2657;DHT22;1338;48.176;11.792;2023-01-24T08:54:33;1.60;99.90
2657;DHT22;1338;48.176;11.792;2023-01-24T08:57:03;1.60;99.90
2657;DHT22;1338;48.176;11.792;2023-01-24T08:59:31;1.60;99.90
2657;DHT22;1338;48.176;11.792;2023-01-24T09:01:59;1.80;99.90
2657;DHT22;1338;48.176;11.792;2023-01-24T09:04:30;1.70;99.90
2657;DHT22;1338;48.176;11.792;2023-01-24T09:06:59;1.80;99.90
2657;DHT22;1338;48.176;11.792;2023-01-24T09:09:28;1.70;99.90
2657;DHT22;1338;48.176;11.792;2023-01-24T09:11:56;1.80;99.90
2657;DHT22;1338;48.176;11.792;2023-01-24T09:14:24;1.70;99.90
2657;DHT22;1338;48.176;11.792;2023-01-24T09:16:53;1.70;99.90
2657;DHT22;1338;48.176;11.792;2023-01-24T09:19:21;1.70;99.90
2657;DHT22;1338;48.176;11.792;2023-01-24T09:21:50;1.90;99.90
2657;DHT22;1338;48.176;11.792;2023-01-24T09:24:21;1.80;99.90
2657;DHT22;1338;48.176;11.792;2023-01-24T09:26:51;1.90;99.90
2657;DHT22;1338;48.176;11.792;2023-01-24T09:29:19;2.00;99.90
2657;DHT22;1338;48.176;11.792;2023-01-24T09:31:47;2.10;2.30
2657;DHT22;1338;48.176;11.792;2023-01-24T09:34:16;1.80;14.60
2657;DHT22;1338;48.176;11.792;2023-01-24T09:36:47;1.90;43.60
2657;DHT22;1338;48.176;11.792;2023-01-24T09:39:16;1.90;99.90
2657;DHT22;1338;48.176;11.792;2023-01-24T09:41:59;1.80;41.30
2657;DHT22;1338;48.176;11.792;2023-01-24T09:44:42;1.70;99.90
2657;DHT22;1338;48.176;11.792;2023-01-24T09:47:23;1.90;99.90
2657;DHT22;1338;48.176;11.792;2023-01-24T09:49:55;1.90;99.90
2657;DHT22;1338;48.176;11.792;2023-01-24T09:52:29;2.00;62.40
2657;DHT22;1338;48.176;11.792;2023-01-24T09:55:03;1.90;86.10
2657;DHT22;1338;48.176;11.792;2023-01-24T09:57:46;2.10;99.90
2657;DHT22;1338;48.176;11.792;2023-01-24T10:00:19;2.10;99.90
2657;DHT22;1338;48.176;11.792;2023-01-24T10:02:50;1.90;11.60
2657;DHT22;1338;48.176;11.792;2023-01-24T10:05:19;1.90;61.20
2657;DHT22;1338;48.176;11.792;2023-01-24T10:08:09;2.00;55.20
2657;DHT22;1338;48.176;11.792;2023-01-24T10:10:45;1.90;47.40
2657;DHT22;1338;48.176;11.792;2023-01-24T10:16:21;1.90;99.90
2657;DHT22;1338;48.176;11.792;2023-01-24T10:19:03;1.90;99.90
2657;DHT22;1338;48.176;11.792;2023-01-24T10:22:03;2.00;99.90
2657;DHT22;1338;48.176;11.792;2023-01-24T10:24:40;1.90;56.00
2657;DHT22;1338;48.176;11.792;2023-01-24T10:27:15;1.80;99.90
2657;DHT22;1338;48.176;11.792;2023-01-24T10:29:57;1.80;99.90
2657;DHT22;1338;48.176;11.792;2023-01-24T10:32:31;1.90;99.90
2657;DHT22;1338;48.176;11.792;2023-01-24T10:35:09;2.00;99.90
2657;DHT22;1338;48.176;11.792;2023-01-24T10:37:41;2.00;1.00
2657;DHT22;1338;48.176;11.792;2023-01-24T10:40:12;2.00;11.10
2657;DHT22;1338;48.176;11.792;2023-01-24T10:42:40;2.00;28.30
2657;DHT22;1338;48.176;11.792;2023-01-24T10:45:26;1.90;74.10
2657;DHT22;1338;48.176;11.792;2023-01-24T10:47:58;2.00;72.80
2657;DHT22;1338;48.176;11.792;2023-01-24T10:50:34;2.10;99.90
2657;DHT22;1338;48.176;11.792;2023-01-24T10:53:13;2.00;20.10
2657;DHT22;1338;48.176;11.792;2023-01-24T10:55:58;2.00;55.00
2657;DHT22;1338;48.176;11.792;2023-01-24T10:58:31;2.10;62.20
2657;DHT22;1338;48.176;11.792;2023-01-24T11:01:17;2.00;82.30
2657;DHT22;1338;48.176;11.792;2023-01-24T11:03:46;1.80;99.90
2657;DHT22;1338;48.176;11.792;2023-01-24T11:06:31;2.00;99.90
2657;DHT22;1338;48.176;11.792;2023-01-24T11:09:07;2.10;77.20
2657;DHT22;1338;48.176;11.792;2023-01-24T11:11:41;2.00;47.50
2657;DHT22;1338;48.176;11.792;2023-01-24T11:14:13;1.90;99.90
2657;DHT22;1338;48.176;11.792;2023-01-24T11:16:45;2.00;99.90
2657;DHT22;1338;48.176;11.792;2023-01-24T11:19:27;2.20;92.80
2657;DHT22;1338;48.176;11.792;2023-01-24T11:21:57;2.10;1.00
2657;DHT22;1338;48.176;11.792;2023-01-24T11:24:26;1.80;1.00
2657;DHT22;1338;48.176;11.792;2023-01-24T11:26:57;2.20;14.40
2657;DHT22;1338;48.176;11.792;2023-01-24T11:29:29;2.10;1.00
2657;DHT22;1338;48.176;11.792;2023-01-24T11:32:15;2.00;1.00
2657;DHT22;1338;48.176;11.792;2023-01-24T11:34:56;2.10;1.00
2657;DHT22;1338;48.176;11.792;2023-01-24T11:37:50;2.10;1.00
2657;DHT22;1338;48.176;11.792;2023-01-24T11:40:28;2.10;1.00
2657;DHT22;1338;48.176;11.792;2023-01-24T11:43:08;2.20;1.00
2657;DHT22;1338;48.176;11.792;2023-01-24T11:48:42;2.10;1.00
2657;DHT22;1338;48.176;11.792;2023-01-24T11:51:17;2.30;1.00
2657;DHT22;1338;48.176;11.792;2023-01-24T11:54:18;2.10;1.00
2657;DHT22;1338;48.176;11.792;2023-01-24T11:56:52;2.20;1.00
2657;DHT22;1338;48.176;11.792;2023-01-24T11:59:46;2.20;1.00
2657;DHT22;1338;48.176;11.792;2023-01-24T12:02:29;2.20;1.00
2657;DHT22;1338;48.176;11.792;2023-01-24T12:05:19;2.30;1.00
2657;DHT22;1338;48.176;11.792;2023-01-24T12:08:01;2.20;1.00
2657;DHT22;1338;48.176;11.792;2023-01-24T12:10:40;2.20;1.00
2657;DHT22;1338;48.176;11.792;2023-01-24T12:13:16;2.10;1.00
2657;DHT22;1338;48.176;11.792;2023-01-24T12:15:57;2.50;1.00
2657;DHT22;1338;48.176;11.792;2023-01-24T12:18:38;2.40;1.00
2657;DHT22;1338;48.176;11.792;2023-01-24T12:21:11;2.30;1.00
2657;DHT22;1338;48.176;11.792;2023-01-24T12:23:45;2.30;1.00
2657;DHT22;1338;48.176;11.792;2023-01-24T12:26:19;2.30;1.00
2657;DHT22;1338;48.176;11.792;2023-01-24T12:28:55;2.30;1.00
2657;DHT22;1338;48.176;11.792;2023-01-24T12:31:32;2.20;1.00
2657;DHT22;1338;48.176;11.792;2023-01-24T12:34:08;2.30;1.00
2657;DHT22;1338;48.176;11.792;2023-01-24T12:36:45;2.30;1.00
2657;DHT22;1338;48.176;11.792;2023-01-24T12:39:19;2.30;1.00
2657;DHT22;1338;48.176;11.792;2023-01-24T12:41:54;2.40;1.00
2657;DHT22;1338;48.176;11.792;2023-01-24T12:44:28;2.30;1.00
2657;DHT22;1338;48.176;11.792;2023-01-24T12:47:10;2.40;1.00
2657;DHT22;1338;48.176;11.792;2023-01-24T12:49:47;2.30;1.00
2657;DHT22;1338;48.176;11.792;2023-01-24T12:52:25;2.40;1.00
2657;DHT22;1338;48.176;11.792;2023-01-24T12:55:00;2.40;1.00
2657;DHT22;1338;48.176;11.792;2023-01-24T12:57:32;2.20;1.00
2657;DHT22;1338;48.176;11.792;2023-01-24T13:00:14;2.10;1.00
2657;DHT22;1338;48.176;11.792;2023-01-24T13:05:46;2.30;1.00
2657;DHT22;1338;48.176;11.792;2023-01-24T13:08:23;2.30;1.00
2657;DHT22;1338;48.176;11.792;2023-01-24T13:11:06;2.30;1.00
2657;DHT22;1338;48.176;11.792;2023-01-24T13:13:41;2.20;1.00
2657;DHT22;1338;48.176;11.792;2023-01-24T13:19:20;2.10;1.00
2657;DHT22;1338;48.176;11.792;2023-01-24T13:21:58;2.10;1.00
2657;DHT22;1338;48.176;11.792;2023-01-24T13:24:53;2.30;1.00
2657;DHT22;1338;48.176;11.792;2023-01-24T13:27:33;2.20;1.00
2657;DHT22;1338;48.176;11.792;2023-01-24T13:30:19;2.20;1.00
2657;DHT22;1338;48.176;11.792;2023-01-24T13:32:51;2.00;1.00
2657;DHT22;1338;48.176;11.792;2023-01-24T13:35:21;2.20;1.00
2657;DHT22;1338;48.176;11.792;2023-01-24T13:37:52;2.10;1.00
2657;DHT22;1338;48.176;11.792;2023-01-24T13:40:26;2.50;1.00
2657;DHT22;1338;48.176;11.792;2023-01-24T13:42:57;2.30;1.00
2657;DHT22;1338;48.176;11.792;2023-01-24T13:45:47;2.40;1.00
2657;DHT22;1338;48.176;11.792;2023-01-24T13:48:53;2.50;1.00
2657;DHT22;1338;48.176;11.792;2023-01-24T13:51:47;2.50;1.00
2657;DHT22;1338;48.176;11.792;2023-01-24T13:54:18;2.40;1.00
2657;DHT22;1338;48.176;11.792;2023-01-24T14:00:24;2.40;1.00
2657;DHT22;1338;48.176;11.792;2023-01-24T14:03:03;2.40;1.00
2657;DHT22;1338;48.176;11.792;2023-01-24T14:05:43;2.30;1.00
2657;DHT22;1338;48.176;11.792;2023-01-24T14:08:40;2.30;1.00
2657;DHT22;1338;48.176;11.792;2023-01-24T14:14:25;2.20;1.00
2657;DHT22;1338;48.176;11.792;2023-01-24T14:19:40;2.20;1.00
2657;DHT22;1338;48.176;11.792;2023-01-24T14:22:22;2.30;1.00
2657;DHT22;1338;48.176;11.792;2023-01-24T14:24:54;2.20;1.00
2657;DHT22;1338;48.176;11.792;2023-01-24T14:27:26;2.30;1.00
2657;DHT22;1338;48.176;11.792;2023-01-24T14:30:03;2.30;1.00
2657;DHT22;1338;48.176;11.792;2023-01-24T14:32:45;2.20;1.00
2657;DHT22;1338;48.176;11.792;2023-01-24T14:35:18;2.30;1.00
2657;DHT22;1338;48.176;11.792;2023-01-24T14:37:48;2.10;1.00
2657;DHT22;1338;48.176;11.792;2023-01-24T14:40:21;2.20;3.70
2657;DHT22;1338;48.176;11.792;2023-01-24T14:42:51;2.20;1.00
2657;DHT22;1338;48.176;11.792;2023-01-24T14:45:27;2.30;1.00
2657;DHT22;1338;48.176;11.792;2023-01-24T14:47:58;2.20;1.00
2657;DHT22;1338;48.176;11.792;2023-01-24T14:50:29;2.30;1.00
2657;DHT22;1338;48.176;11.792;2023-01-24T14:52:58;2.30;1.00
2657;DHT22;1338;48.176;11.792;2023-01-24T14:55:38;2.10;1.00
2657;DHT22;1338;48.176;11.792;2023-01-24T14:58:18;1.90;1.00
2657;DHT22;1338;48.176;11.792;2023-01-24T15:00:47;2.00;98.80
2657;DHT22;1338;48.176;11.792;2023-01-24T15:03:20;1.90;45.80
2657;DHT22;1338;48.176;11.792;2023-01-24T15:05:55;1.80;99.90
2657;DHT22;1338;48.176;11.792;2023-01-24T15:08:25;2.10;99.90
2657;DHT22;1338;48.176;11.792;2023-01-24T15:10:59;2.00;9.20
2657;DHT22;1338;48.176;11.792;2023-01-24T15:13:32;2.00;1.00
2657;DHT22;1338;48.176;11.792;2023-01-24T15:16:03;2.10;34.10
2657;DHT22;1338;48.176;11.792;2023-01-24T15:18:44;2.00;20.40
2657;DHT22;1338;48.176;11.792;2023-01-24T15:21:19;2.00;6.30
2657;DHT22;1338;48.176;11.792;2023-01-24T15:23:51;2.20;1.00
2657;DHT22;1338;48.176;11.792;2023-01-24T15:26:32;2.30;1.00
2657;DHT22;1338;48.176;11.792;2023-01-24T15:38:13;1.90;1.00
2657;DHT22;1338;48.176;11.792;2023-01-24T15:40:48;2.10;60.10
2657;DHT22;1338;48.176;11.792;2023-01-24T15:43:20;1.90;1.00
2657;DHT22;1338;48.176;11.792;2023-01-24T15:46:13;2.00;99.90
2657;DHT22;1338;48.176;11.792;2023-01-24T15:49:01;1.90;3.60
2657;DHT22;1338;48.176;11.792;2023-01-24T15:51:34;2.00;99.90
2657;DHT22;1338;48.176;11.792;2023-01-24T15:54:09;1.90;1.40
2657;DHT22;1338;48.176;11.792;2023-01-24T15:56:39;1.90;62.80
2657;DHT22;1338;48.176;11.792;2023-01-24T15:59:19;1.80;99.90
2657;DHT22;1338;48.176;11.792;2023-01-24T16:01:49;2.10;1.00
2657;DHT22;1338;48.176;11.792;2023-01-24T16:04:19;1.90;1.00
2657;DHT22;1338;48.176;11.792;2023-01-24T16:06:49;1.90;1.00
2657;DHT22;1338;48.176;11.792;2023-01-24T16:09:17;2.20;1.00
2657;DHT22;1338;48.176;11.792;2023-01-24T16:11:47;1.80;1.00
2657;DHT22;1338;48.176;11.792;2023-01-24T16:14:18;2.00;46.80
2657;DHT22;1338;48.176;11.792;2023-01-24T16:16:50;1.70;1.00
2657;DHT22;1338;48.176;11.792;2023-01-24T16:19:21;1.80;99.90
2657;DHT22;1338;48.176;11.792;2023-01-24T16:21:52;1.70;99.90
2657;DHT22;1338;48.176;11.792;2023-01-24T16:24:20;1.70;3.30
2657;DHT22;1338;48.176;11.792;2023-01-24T16:26:49;1.60;99.90
2657;DHT22;1338;48.176;11.792;2023-01-24T16:29:20;1.80;99.90
2657;DHT22;1338;48.176;11.792;2023-01-24T16:31:49;1.60;1.00
2657;DHT22;1338;48.176;11.792;2023-01-24T16:34:17;1.50;87.90
2657;DHT22;1338;48.176;11.792;2023-01-24T16:36:45;1.50;99.90
2657;DHT22;1338;48.176;11.792;2023-01-24T16:39:16;1.60;99.90
2657;DHT22;1338;48.176;11.792;2023-01-24T16:41:46;1.50;99.90
2657;DHT22;1338;48.176;11.792;2023-01-24T16:44:15;1.60;99.90
2657;DHT22;1338;48.176;11.792;2023-01-24T16:46:47;1.50;99.90
2657;DHT22;1338;48.176;11.792;2023-01-24T16:49:16;1.80;99.90
2657;DHT22;1338;48.176;11.792;2023-01-24T16:51:45;1.50;26.20
2657;DHT22;1338;48.176;11.792;2023-01-24T16:54:15;1.40;99.90
2657;DHT22;1338;48.176;11.792;2023-01-24T16:56:43;1.60;99.90
2657;DHT22;1338;48.176;11.792;2023-01-24T16:59:12;1.50;99.90
2657;DHT22;1338;48.176;11.792;2023-01-24T17:01:40;1.60;99.90
2657;DHT22;1338;48.176;11.792;2023-01-24T17:04:09;2.00;99.90
2657;DHT22;1338;48.176;11.792;2023-01-24T17:06:37;1.80;1.00
2657;DHT22;1338;48.176;11.792;2023-01-24T17:09:06;1.80;2.50
2657;DHT22;1338;48.176;11.792;2023-01-24T17:11:36;1.70;46.50
2657;DHT22;1338;48.176;11.792;2023-01-24T17:14:04;1.60;57.40
2657;DHT22;1338;48.176;11.792;2023-01-24T17:16:33;1.50;78.60
2657;DHT22;1338;48.176;11.792;2023-01-24T17:19:01;1.70;99.90
2657;DHT22;1338;48.176;11.792;2023-01-24T17:21:29;1.90;1.00